Time;durP1;ratioP1;P1;durP2;ratioP2;P2;SDS_P1;SDS_P2;PMS_P1;PMS_P2;Temp;Humidity;BMP_temperature;BMP_pressure;BME280_temperature;BME280_humidity;BME280_pressure;Samples;Min_cycle;Max_cycle;Signal;HPM_P1;HPM_P2
2022/04/30 00:00:29;;;;;;;13.80;9.17;;;7.60;43.30;;;;;;4961696;28;46364;-62
2022/04/30 00:02:57;;;;;;;14.53;9.30;;;7.50;43.50;;;;;;4963815;28;45865;-62
2022/04/30 00:05:24;;;;;;;13.13;8.73;;;7.40;43.70;;;;;;4958217;28;46688;-63
2022/04/30 00:07:50;;;;;;;12.10;8.63;;;7.30;43.80;;;;;;4954424;28;48521;-63
2022/04/30 00:10:16;;;;;;;13.17;8.60;;;7.30;44.00;;;;;;4963023;28;46779;-63
2022/04/30 00:12:41;;;;;;;13.50;8.93;;;7.20;44.30;;;;;;4965843;28;46524;-63
2022/04/30 00:15:08;;;;;;;14.03;8.73;;;7.20;44.40;;;;;;4961235;28;46514;-63
2022/04/30 00:17:34;;;;;;;12.00;8.43;;;7.20;44.40;;;;;;4959885;28;48240;-63
2022/04/30 00:20:00;;;;;;;13.93;8.57;;;7.20;44.40;;;;;;4959671;28;46442;-63
2022/04/30 00:22:26;;;;;;;14.83;9.00;;;7.20;44.40;;;;;;4961111;28;46552;-63
2022/04/30 00:24:51;;;;;;;20.03;8.60;;;7.20;44.40;;;;;;4963790;28;46199;-63
2022/04/30 00:27:20;;;;;;;13.23;8.30;;;7.20;44.50;;;;;;4962952;28;46316;-64
2022/04/30 00:29:46;;;;;;;13.37;8.63;;;7.30;44.70;;;;;;4962864;28;46687;-64
2022/04/30 00:32:13;;;;;;;11.93;8.83;;;7.30;44.50;;;;;;4963823;28;46319;-63
2022/04/30 00:34:40;;;;;;;13.00;9.13;;;7.30;44.60;;;;;;4963478;28;46381;-63
2022/04/30 00:37:05;;;;;;;10.50;8.00;;;7.30;44.60;;;;;;4962995;28;46489;-63
2022/04/30 00:39:32;;;;;;;14.80;9.13;;;7.30;44.60;;;;;;4964519;28;46316;-63
2022/04/30 00:41:58;;;;;;;12.67;8.60;;;7.40;44.80;;;;;;4963342;28;46432;-63
2022/04/30 00:44:24;;;;;;;12.73;8.97;;;7.40;44.70;;;;;;4962994;28;46581;-63
2022/04/30 00:46:50;;;;;;;14.20;8.37;;;7.30;44.60;;;;;;4962941;28;47726;-63
2022/04/30 00:49:16;;;;;;;15.90;8.50;;;7.30;44.70;;;;;;4962590;28;46383;-64
2022/04/30 00:51:43;;;;;;;12.87;8.80;;;7.30;44.80;;;;;;4963210;28;46636;-63
2022/04/30 00:54:11;;;;;;;13.37;8.27;;;7.30;45.10;;;;;;4961939;28;46578;-63
2022/04/30 00:56:58;;;;;;;11.80;7.93;;;7.20;45.10;;;;;;4962780;28;47995;-63
2022/04/30 00:59:26;;;;;;;12.33;8.60;;;7.20;45.50;;;;;;4957016;28;46461;-63
2022/04/30 01:01:52;;;;;;;16.83;8.50;;;7.20;45.50;;;;;;4963030;28;46389;-63
2022/04/30 01:04:20;;;;;;;14.80;8.30;;;7.10;45.50;;;;;;4962843;28;46233;-64
2022/04/30 01:06:49;;;;;;;13.57;8.60;;;7.10;45.80;;;;;;4962213;28;47809;-63
2022/04/30 01:09:17;;;;;;;12.90;8.50;;;7.00;45.70;;;;;;4959664;28;46670;-63
2022/04/30 01:11:44;;;;;;;12.73;8.83;;;7.10;45.90;;;;;;4962669;28;46588;-62
2022/04/30 01:14:10;;;;;;;14.87;9.97;;;7.10;45.90;;;;;;4961931;28;46227;-63
2022/04/30 01:16:36;;;;;;;14.63;9.97;;;7.10;45.80;;;;;;4962609;28;47995;-63
2022/04/30 01:19:02;;;;;;;16.47;10.20;;;7.10;45.90;;;;;;4962203;28;46337;-64
2022/04/30 01:21:30;;;;;;;15.80;9.97;;;7.10;45.80;;;;;;4962823;28;46498;-64
2022/04/30 01:23:58;;;;;;;17.03;9.47;;;7.10;45.80;;;;;;4960470;28;45968;-64
2022/04/30 01:26:27;;;;;;;15.50;8.30;;;7.10;45.80;;;;;;4962246;28;48799;-64
2022/04/30 01:28:53;;;;;;;13.50;9.33;;;7.10;46.00;;;;;;4961666;28;46259;-63
2022/04/30 01:39:32;;;;;;;15.40;8.80;;;7.00;46.10;;;;;;4963460;28;46420;-64
2022/04/30 01:42:11;;;;;;;13.20;9.10;;;7.00;46.20;;;;;;4963501;28;46395;-64
2022/04/30 01:44:38;;;;;;;12.87;8.47;;;7.00;46.50;;;;;;4962049;28;46432;-64
2022/04/30 01:47:04;;;;;;;12.10;7.70;;;6.90;46.50;;;;;;4961611;28;47200;-64
2022/04/30 01:49:39;;;;;;;11.10;8.20;;;6.90;46.60;;;;;;4960614;28;46339;-63
2022/04/30 01:52:13;;;;;;;14.80;9.90;;;6.90;46.80;;;;;;4961090;28;46279;-63
2022/04/30 01:54:39;;;;;;;15.63;10.67;;;6.90;46.80;;;;;;4959415;28;46470;-64
2022/04/30 01:57:05;;;;;;;18.23;11.20;;;7.00;46.70;;;;;;4961583;28;46479;-63
2022/04/30 01:59:32;;;;;;;13.90;10.37;;;7.00;46.60;;;;;;4958909;28;46502;-64
2022/04/30 02:02:01;;;;;;;19.13;11.27;;;7.00;46.60;;;;;;4954523;28;46341;-64
2022/04/30 02:04:28;;;;;;;14.40;10.03;;;7.00;46.70;;;;;;4962281;28;46524;-63
2022/04/30 02:06:56;;;;;;;16.47;9.63;;;6.90;46.80;;;;;;4960826;28;47731;-62
2022/04/30 02:09:22;;;;;;;19.53;11.10;;;6.90;46.80;;;;;;4960908;28;46466;-63
2022/04/30 02:11:48;;;;;;;16.20;10.87;;;6.90;46.90;;;;;;4961763;28;46830;-64
2022/04/30 02:14:15;;;;;;;13.93;9.60;;;7.00;47.00;;;;;;4961412;28;46596;-63
2022/04/30 02:16:43;;;;;;;16.17;9.13;;;6.90;47.00;;;;;;4958729;28;47471;-64
2022/04/30 02:19:09;;;;;;;11.20;8.37;;;6.80;47.30;;;;;;4960708;28;46439;-65
2022/04/30 02:21:36;;;;;;;18.80;10.20;;;6.80;47.60;;;;;;4961148;28;46432;-64
2022/04/30 02:24:03;;;;;;;12.90;9.20;;;6.70;47.80;;;;;;4961900;28;45895;-64
2022/04/30 02:26:29;;;;;;;12.67;9.00;;;6.70;47.90;;;;;;4959945;28;48057;-65
2022/04/30 02:28:57;;;;;;;13.67;9.73;;;6.70;47.90;;;;;;4953477;28;46537;-64
2022/04/30 02:31:25;;;;;;;14.23;9.23;;;6.70;47.90;;;;;;4957456;28;46491;-64
2022/04/30 02:33:56;;;;;;;13.83;10.00;;;6.70;48.10;;;;;;4959344;28;46468;-64
2022/04/30 02:36:25;;;;;;;12.60;9.23;;;6.70;48.20;;;;;;4972263;28;46447;-63
2022/04/30 02:38:53;;;;;;;15.97;9.10;;;6.70;48.30;;;;;;4958527;28;46457;-63
2022/04/30 02:41:21;;;;;;;14.47;9.83;;;6.70;48.30;;;;;;4959109;28;45914;-64
2022/04/30 02:43:50;;;;;;;16.53;8.80;;;6.60;48.30;;;;;;4959127;28;46352;-64
2022/04/30 02:46:17;;;;;;;14.73;10.20;;;6.60;48.40;;;;;;4960456;28;46319;-63
2022/04/30 02:48:43;;;;;;;11.77;8.47;;;6.60;48.50;;;;;;4960332;28;46351;-64
2022/04/30 02:51:10;;;;;;;16.43;10.50;;;6.50;48.40;;;;;;4960665;28;46453;-63
2022/04/30 02:53:37;;;;;;;18.27;10.53;;;6.40;48.50;;;;;;4958526;28;46434;-64
2022/04/30 02:56:07;;;;;;;16.87;10.90;;;6.30;48.90;;;;;;4960061;28;47820;-63
2022/04/30 03:01:19;;;;;;;20.10;10.40;;;6.20;49.40;;;;;;4961068;28;46455;-63
2022/04/30 03:03:46;;;;;;;20.50;11.03;;;6.30;49.40;;;;;;4959919;28;46697;-63
2022/04/30 03:06:13;;;;;;;14.10;9.60;;;6.30;49.40;;;;;;4954572;28;46555;-63
2022/04/30 03:08:39;;;;;;;17.67;10.47;;;6.30;49.30;;;;;;4960313;28;46442;-63
2022/04/30 03:11:07;;;;;;;16.40;11.57;;;6.30;49.30;;;;;;4960349;28;46279;-64
2022/04/30 03:13:35;;;;;;;21.43;11.50;;;6.40;49.10;;;;;;4958263;28;46501;-65
2022/04/30 03:21:41;;;;;;;22.67;12.30;;;6.50;48.90;;;;;;4960423;28;46516;-63
2022/04/30 03:22:05;;;;;;;19.93;11.20;;;6.60;48.50;;;;;;4961003;28;46479;-63
2022/04/30 03:24:27;;;;;;;21.37;11.50;;;6.60;48.40;;;;;;4960022;28;46359;-64
2022/04/30 03:26:52;;;;;;;18.03;11.47;;;6.70;48.20;;;;;;4960264;28;47800;-62
2022/04/30 03:29:21;;;;;;;21.23;11.80;;;6.80;48.10;;;;;;4957739;28;46422;-64
2022/04/30 03:31:47;;;;;;;18.00;10.80;;;6.80;48.10;;;;;;4960428;28;46382;-64
2022/04/30 03:34:14;;;;;;;17.10;10.20;;;6.80;48.10;;;;;;4960246;28;46279;-64
2022/04/30 03:36:40;;;;;;;20.00;10.87;;;6.80;48.20;;;;;;4960736;28;46390;-64
2022/04/30 03:39:06;;;;;;;14.60;10.20;;;6.90;48.30;;;;;;4959791;28;46514;-64
2022/04/30 03:41:32;;;;;;;16.50;10.40;;;6.90;48.40;;;;;;4960574;28;46325;-64
2022/04/30 03:43:58;;;;;;;18.20;10.03;;;6.90;48.40;;;;;;4960155;28;45925;-64
2022/04/30 03:46:24;;;;;;;16.17;10.57;;;7.00;48.30;;;;;;4959939;28;47987;-63
2022/04/30 03:48:56;;;;;;;16.17;10.60;;;7.00;48.20;;;;;;4961737;28;46412;-63
2022/04/30 03:51:23;;;;;;;14.00;10.33;;;7.10;48.20;;;;;;4957957;28;46440;-64
2022/04/30 03:53:49;;;;;;;15.70;10.90;;;7.10;48.00;;;;;;4960355;28;45986;-64
2022/04/30 03:56:19;;;;;;;17.13;10.90;;;7.10;48.00;;;;;;4960315;28;47969;-64
2022/04/30 03:58:47;;;;;;;15.57;10.07;;;7.20;48.20;;;;;;4956617;28;46270;-64
2022/04/30 04:01:14;;;;;;;15.93;10.20;;;7.20;48.10;;;;;;4961303;28;46413;-65
2022/04/30 04:03:41;;;;;;;16.93;10.87;;;7.20;48.20;;;;;;4960441;28;46497;-64
2022/04/30 04:06:07;;;;;;;19.43;10.67;;;7.30;48.30;;;;;;4960063;28;48089;-64
2022/04/30 04:08:35;;;;;;;12.57;10.10;;;7.30;48.30;;;;;;4958961;28;46326;-64
2022/04/30 04:11:01;;;;;;;15.83;10.80;;;7.30;48.30;;;;;;4960246;28;45804;-63
2022/04/30 04:18:56;;;;;;;14.57;10.70;;;7.40;48.60;;;;;;4961447;28;45863;-64
2022/04/30 04:21:23;;;;;;;18.27;11.03;;;7.50;48.70;;;;;;4960436;28;45914;-64
2022/04/30 04:26:34;;;;;;;19.27;11.73;;;7.50;48.90;;;;;;4961137;28;46432;-63
2022/04/30 04:28:59;;;;;;;19.73;11.83;;;7.50;49.10;;;;;;4959700;28;46412;-64
2022/04/30 04:31:25;;;;;;;18.20;12.20;;;7.60;49.20;;;;;;4959883;28;46353;-63
2022/04/30 04:33:51;;;;;;;16.93;12.50;;;7.50;49.30;;;;;;4962393;28;46562;-64
2022/04/30 04:36:17;;;;;;;20.40;12.73;;;7.60;49.30;;;;;;4959378;28;48778;-64
2022/04/30 04:38:44;;;;;;;17.70;12.03;;;7.60;49.30;;;;;;4961190;28;45760;-64
2022/04/30 04:41:10;;;;;;;26.07;12.13;;;7.70;49.30;;;;;;4960029;28;45916;-64
2022/04/30 04:43:35;;;;;;;18.50;11.23;;;7.70;49.50;;;;;;4960196;28;46360;-63
2022/04/30 04:46:04;;;;;;;27.10;11.60;;;7.70;49.70;;;;;;4958247;28;46478;-64
2022/04/30 04:48:32;;;;;;;19.37;12.87;;;7.80;49.60;;;;;;4959162;28;46255;-63
2022/04/30 04:50:58;;;;;;;19.23;12.00;;;7.80;49.60;;;;;;4959424;28;46340;-63
2022/04/30 04:53:24;;;;;;;17.20;12.10;;;7.90;49.70;;;;;;4952803;28;46619;-64
2022/04/30 04:55:50;;;;;;;16.50;12.33;;;8.00;49.50;;;;;;4955560;28;47915;-64
2022/04/30 04:58:16;;;;;;;18.23;11.77;;;8.10;49.60;;;;;;4957948;28;46492;-64
2022/04/30 05:00:42;;;;;;;17.50;11.77;;;8.20;49.70;;;;;;4959463;28;46544;-64
2022/04/30 05:03:08;;;;;;;19.00;12.67;;;8.30;49.80;;;;;;4959873;28;46488;-64
2022/04/30 05:05:35;;;;;;;20.17;12.07;;;8.40;49.70;;;;;;4959495;28;46402;-63
2022/04/30 05:08:02;;;;;;;19.77;11.80;;;8.50;49.40;;;;;;4959385;28;46443;-64
2022/04/30 05:10:28;;;;;;;17.67;12.53;;;8.60;49.40;;;;;;4960103;28;46389;-64
2022/04/30 05:12:53;;;;;;;17.17;12.17;;;8.80;49.10;;;;;;4963161;28;46013;-64
2022/04/30 05:15:19;;;;;;;16.53;11.07;;;8.90;48.70;;;;;;4961548;28;46451;-64
2022/04/30 05:17:48;;;;;;;17.80;11.97;;;9.20;48.40;;;;;;4960365;28;46368;-65
2022/04/30 05:20:13;;;;;;;20.63;11.50;;;9.40;48.00;;;;;;4961099;28;46493;-64
2022/04/30 05:22:39;;;;;;;17.30;10.43;;;9.60;47.70;;;;;;4962272;28;46425;-66
2022/04/30 05:25:05;;;;;;;14.00;10.23;;;9.70;47.60;;;;;;4959769;28;49349;-65
2022/04/30 05:27:31;;;;;;;17.00;11.60;;;9.90;47.60;;;;;;4960958;28;46420;-64
2022/04/30 05:29:56;;;;;;;14.63;10.93;;;10.00;46.60;;;;;;4963212;28;46305;-64
2022/04/30 05:32:22;;;;;;;14.97;11.20;;;10.10;46.60;;;;;;4961719;28;46522;-64
2022/04/30 05:34:48;;;;;;;15.10;10.60;;;10.20;46.70;;;;;;4962399;28;46597;-64
2022/04/30 05:37:14;;;;;;;17.27;11.30;;;10.20;46.70;;;;;;4961635;28;46385;-64
2022/04/30 05:39:39;;;;;;;15.33;11.37;;;10.20;47.00;;;;;;4962214;28;46456;-64
2022/04/30 05:42:05;;;;;;;18.10;11.10;;;10.30;47.00;;;;;;4958282;28;46351;-63
2022/04/30 05:44:31;;;;;;;16.90;11.60;;;10.40;47.00;;;;;;4955855;28;48918;-63
2022/04/30 05:46:57;;;;;;;17.60;10.70;;;10.50;46.90;;;;;;4957770;28;46377;-63
2022/04/30 05:49:23;;;;;;;15.63;10.07;;;10.50;46.90;;;;;;4957552;28;46481;-65
2022/04/30 05:51:49;;;;;;;16.23;11.33;;;10.60;46.90;;;;;;4960670;28;45938;-65
2022/04/30 05:54:16;;;;;;;16.70;12.20;;;10.60;46.90;;;;;;4953701;28;47345;-64
2022/04/30 05:56:41;;;;;;;19.77;10.77;;;10.60;47.00;;;;;;4957799;28;46348;-64
2022/04/30 05:59:08;;;;;;;17.83;11.53;;;10.70;47.10;;;;;;4956690;28;46309;-64
2022/04/30 06:01:34;;;;;;;19.53;12.60;;;10.70;47.20;;;;;;4960150;28;45924;-65
2022/04/30 06:04:00;;;;;;;19.40;12.40;;;10.80;47.00;;;;;;4957872;28;46489;-65
2022/04/30 06:06:26;;;;;;;18.47;11.40;;;10.80;46.80;;;;;;4953785;28;46435;-65
2022/04/30 06:08:52;;;;;;;24.30;12.03;;;10.80;46.80;;;;;;4953277;28;46440;-64
2022/04/30 06:11:17;;;;;;;24.10;11.80;;;10.90;46.80;;;;;;4956295;28;46611;-64
2022/04/30 06:13:43;;;;;;;18.10;11.73;;;10.90;46.80;;;;;;4956427;28;49057;-65
2022/04/30 06:16:08;;;;;;;23.67;13.10;;;10.90;46.90;;;;;;4956975;28;46423;-64
2022/04/30 06:18:34;;;;;;;19.30;12.50;;;10.90;47.00;;;;;;4951205;28;45800;-64
2022/04/30 06:21:01;;;;;;;22.23;11.60;;;11.00;46.70;;;;;;4955951;28;46436;-64
2022/04/30 06:23:27;;;;;;;18.33;11.50;;;11.10;46.70;;;;;;4954175;28;48027;-64
2022/04/30 06:25:53;;;;;;;16.27;10.70;;;11.10;46.60;;;;;;4957226;28;46432;-64
2022/04/30 06:28:19;;;;;;;18.30;11.63;;;11.10;47.90;;;;;;4956528;28;46404;-65
2022/04/30 06:30:45;;;;;;;16.03;11.00;;;11.20;46.60;;;;;;4955527;28;46467;-64
2022/04/30 06:33:11;;;;;;;20.30;11.70;;;11.20;46.60;;;;;;4957997;28;49051;-64
2022/04/30 06:35:37;;;;;;;20.83;11.23;;;11.10;47.00;;;;;;4952927;28;46465;-64
2022/04/30 06:38:04;;;;;;;18.50;11.00;;;11.10;47.10;;;;;;4957380;28;46332;-64
2022/04/30 06:40:31;;;;;;;16.50;10.43;;;11.00;47.00;;;;;;4959923;28;46490;-64
2022/04/30 06:42:57;;;;;;;15.23;10.60;;;11.00;46.80;;;;;;4954403;28;48635;-65
2022/04/30 06:45:23;;;;;;;15.80;11.10;;;11.00;46.90;;;;;;4958199;28;46561;-64
2022/04/30 06:47:49;;;;;;;17.90;11.13;;;11.10;46.80;;;;;;4957263;28;46518;-65
2022/04/30 06:50:14;;;;;;;16.60;10.67;;;11.10;47.20;;;;;;4959732;28;46303;-64
2022/04/30 06:58:09;;;;;;;21.03;10.70;;;11.40;46.40;;;;;;4955552;28;46385;-62
2022/04/30 07:03:23;;;;;;;15.47;10.20;;;11.30;46.90;;;;;;4957129;28;46303;-64
2022/04/30 07:05:52;;;;;;;15.70;10.30;;;11.30;46.90;;;;;;4958750;28;46469;-65
2022/04/30 07:08:18;;;;;;;15.10;10.70;;;11.30;47.20;;;;;;4977937;28;46451;-64
2022/04/30 07:10:44;;;;;;;17.17;10.33;;;11.30;46.80;;;;;;4959539;28;46329;-63
2022/04/30 07:13:12;;;;;;;17.70;9.60;;;11.40;46.40;;;;;;4960748;28;47973;-64
2022/04/30 07:15:38;;;;;;;15.40;10.03;;;11.40;46.10;;;;;;4960858;28;46420;-65
2022/04/30 07:18:04;;;;;;;14.50;9.93;;;11.50;46.00;;;;;;4962243;28;46509;-65
2022/04/30 07:20:30;;;;;;;21.27;10.73;;;11.60;46.00;;;;;;4960126;28;46562;-64
2022/04/30 07:22:55;;;;;;;18.40;9.60;;;11.60;45.90;;;;;;4960298;28;48388;-65
2022/04/30 07:25:21;;;;;;;16.43;10.17;;;11.60;46.10;;;;;;4959564;28;46672;-64
2022/04/30 07:27:47;;;;;;;13.40;10.00;;;11.80;46.10;;;;;;4957635;28;46345;-65
2022/04/30 07:30:12;;;;;;;15.97;10.63;;;11.80;47.70;;;;;;4955969;28;46375;-64
2022/04/30 07:32:41;;;;;;;14.43;10.63;;;11.90;47.70;;;;;;4958994;28;48706;-64
2022/04/30 07:35:07;;;;;;;14.90;10.60;;;12.10;47.70;;;;;;4960572;28;46405;-64
2022/04/30 07:37:33;;;;;;;17.57;10.50;;;12.20;48.10;;;;;;4957999;28;46503;-64
2022/04/30 07:39:58;;;;;;;15.07;10.33;;;12.30;48.10;;;;;;4955913;28;46641;-65
2022/04/30 07:42:24;;;;;;;17.80;10.23;;;12.30;48.80;;;;;;4959152;28;46427;-63
2022/04/30 07:44:50;;;;;;;14.80;10.40;;;12.20;49.60;;;;;;4961107;28;45797;-65
2022/04/30 07:47:15;;;;;;;14.47;10.60;;;12.30;50.40;;;;;;4952807;28;46372;-65
2022/04/30 07:49:41;;;;;;;16.40;10.90;;;12.30;51.00;;;;;;4955749;28;46008;-65
2022/04/30 07:52:08;;;;;;;17.17;10.43;;;12.40;50.70;;;;;;4955443;28;46507;-65
2022/04/30 07:54:33;;;;;;;16.53;12.10;;;12.40;51.00;;;;;;4955548;28;46453;-64
2022/04/30 07:56:59;;;;;;;15.63;11.10;;;12.20;51.80;;;;;;4954356;28;46380;-65
2022/04/30 07:59:25;;;;;;;12.80;9.93;;;12.30;51.90;;;;;;4954270;28;46488;-66
2022/04/30 08:01:52;;;;;;;18.80;11.27;;;12.30;52.20;;;;;;4951646;28;47885;-65
2022/04/30 08:04:18;;;;;;;13.73;10.57;;;12.30;52.80;;;;;;4951208;28;46531;-65
2022/04/30 08:06:43;;;;;;;15.60;10.13;;;12.30;53.40;;;;;;4956716;28;46404;-65
2022/04/30 08:09:09;;;;;;;16.40;10.40;;;12.30;52.80;;;;;;4956007;28;46551;-65
2022/04/30 08:11:36;;;;;;;16.33;10.43;;;12.30;53.00;;;;;;4956532;28;48937;-64
2022/04/30 08:14:01;;;;;;;17.70;10.30;;;12.30;53.70;;;;;;4953259;28;46321;-66
2022/04/30 08:16:28;;;;;;;15.97;11.30;;;12.40;53.80;;;;;;4951494;28;46453;-64
2022/04/30 08:18:55;;;;;;;17.47;11.13;;;12.40;53.80;;;;;;4958607;28;46433;-64
2022/04/30 08:21:21;;;;;;;17.53;12.00;;;12.40;53.80;;;;;;4953706;28;46370;-64
2022/04/30 08:23:47;;;;;;;18.37;12.27;;;12.40;53.80;;;;;;4951357;28;46454;-64
2022/04/30 08:26:12;;;;;;;15.47;11.27;;;12.30;54.90;;;;;;4951655;28;47235;-64
2022/04/30 08:28:38;;;;;;;16.30;11.90;;;12.30;55.20;;;;;;4955188;28;46416;-64
2022/04/30 08:31:04;;;;;;;17.60;12.17;;;12.40;54.60;;;;;;4952476;28;46706;-64
2022/04/30 08:33:29;;;;;;;18.80;12.07;;;12.50;54.60;;;;;;4951769;28;46483;-64
2022/04/30 08:35:56;;;;;;;17.50;12.67;;;12.60;55.00;;;;;;4955067;28;46321;-64
2022/04/30 08:38:22;;;;;;;17.83;12.27;;;12.70;54.20;;;;;;4957293;28;45900;-64
2022/04/30 08:40:48;;;;;;;21.00;13.80;;;12.80;54.30;;;;;;4958202;28;46540;-63
2022/04/30 08:43:15;;;;;;;15.53;12.00;;;13.00;54.40;;;;;;4954061;28;46786;-63
2022/04/30 08:45:43;;;;;;;22.17;12.20;;;13.00;53.30;;;;;;4958958;28;45937;-64
2022/04/30 08:48:11;;;;;;;15.97;11.30;;;13.20;53.30;;;;;;4961069;28;46560;-64
2022/04/30 08:50:38;;;;;;;20.30;12.60;;;13.30;53.10;;;;;;4956036;28;48053;-64
2022/04/30 08:53:04;;;;;;;15.70;10.90;;;13.30;53.30;;;;;;4960056;28;46306;-63
2022/04/30 08:55:29;;;;;;;16.27;12.03;;;13.20;52.90;;;;;;4957713;28;46557;-64
2022/04/30 08:57:55;;;;;;;17.53;11.50;;;13.20;53.10;;;;;;4956682;28;46589;-64
2022/04/30 09:00:21;;;;;;;22.53;12.23;;;13.00;52.90;;;;;;4959138;28;47639;-65
2022/04/30 09:02:56;;;;;;;16.57;12.27;;;12.90;53.30;;;;;;4961333;28;46585;-64
2022/04/30 09:05:22;;;;;;;17.13;10.77;;;12.90;54.20;;;;;;4962315;28;45961;-64
2022/04/30 09:07:55;;;;;;;17.67;12.40;;;12.80;53.40;;;;;;4964296;28;46134;-64
2022/04/30 09:10:23;;;;;;;21.57;11.63;;;12.80;53.80;;;;;;4960486;28;46598;-64
2022/04/30 09:12:50;;;;;;;17.10;11.80;;;12.80;53.80;;;;;;4958272;28;46415;-64
2022/04/30 09:15:16;;;;;;;17.10;12.00;;;12.90;54.20;;;;;;4958854;28;46428;-65
2022/04/30 09:17:41;;;;;;;20.13;14.20;;;12.90;53.90;;;;;;4957031;28;46435;-64
2022/04/30 09:20:16;;;;;;;19.30;13.67;;;13.00;53.80;;;;;;4961627;28;47873;-64
2022/04/30 09:22:42;;;;;;;22.23;13.07;;;13.20;53.00;;;;;;4957866;28;46270;-64
2022/04/30 09:25:17;;;;;;;17.10;12.10;;;13.30;52.80;;;;;;4955475;28;45921;-64
2022/04/30 09:27:51;;;;;;;21.47;12.77;;;13.40;52.50;;;;;;4961589;28;46460;-64
2022/04/30 09:30:29;;;;;;;18.40;12.93;;;13.40;52.00;;;;;;4961510;28;47713;-64
2022/04/30 09:33:06;;;;;;;16.27;11.97;;;13.40;52.00;;;;;;4960280;28;46405;-63
2022/04/30 09:38:19;;;;;;;33.37;14.10;;;13.30;51.80;;;;;;4957067;28;46541;-65
2022/04/30 09:41:00;;;;;;;20.90;15.10;;;13.20;51.80;;;;;;4959311;28;47902;-64
2022/04/30 09:43:30;;;;;;;21.10;14.10;;;13.20;52.20;;;;;;4956334;28;46395;-64
2022/04/30 09:46:00;;;;;;;17.30;13.70;;;13.30;52.20;;;;;;4962415;28;46461;-64
2022/04/30 09:53:58;;;;;;;23.23;12.07;;;13.50;51.50;;;;;;4958791;28;45931;-66
2022/04/30 09:56:38;;;;;;;19.50;13.50;;;13.60;51.00;;;;;;4960935;28;46610;-64
2022/04/30 09:59:06;;;;;;;18.97;12.80;;;13.60;51.00;;;;;;4975057;28;46367;-63
2022/04/30 10:01:34;;;;;;;27.40;15.23;;;13.60;51.10;;;;;;4960692;28;48183;-65
2022/04/30 10:04:10;;;;;;;21.50;14.30;;;13.60;51.10;;;;;;4958219;28;46268;-64
2022/04/30 10:06:43;;;;;;;21.63;14.33;;;13.70;51.10;;;;;;4958583;28;46482;-64
2022/04/30 10:09:12;;;;;;;19.70;13.77;;;13.70;51.00;;;;;;4959647;28;46425;-64
2022/04/30 10:11:49;;;;;;;27.63;14.50;;;13.60;51.10;;;;;;4961054;28;48135;-64
2022/04/30 10:14:34;;;;;;;18.10;13.10;;;13.50;51.30;;;;;;4960807;28;46348;-64
2022/04/30 10:17:13;;;;;;;21.57;15.40;;;13.70;51.30;;;;;;4959967;28;46416;-64
2022/04/30 10:20:04;;;;;;;19.10;13.30;;;13.80;51.20;;;;;;4955655;28;46498;-65
2022/04/30 10:22:30;;;;;;;19.03;13.87;;;14.10;50.30;;;;;;4958817;28;48037;-64
2022/04/30 10:24:58;;;;;;;20.20;13.97;;;14.50;49.10;;;;;;4959790;28;46018;-63
2022/04/30 10:27:36;;;;;;;18.37;13.93;;;14.60;48.60;;;;;;4955454;28;46656;-63
2022/04/30 10:30:05;;;;;;;20.57;13.97;;;14.80;48.30;;;;;;4953582;28;46579;-63
2022/04/30 10:32:35;;;;;;;17.53;12.00;;;15.00;47.80;;;;;;4959727;28;48005;-63
2022/04/30 10:35:03;;;;;;;22.13;14.27;;;15.30;47.20;;;;;;4956484;28;46561;-63
2022/04/30 10:37:30;;;;;;;20.20;14.00;;;15.30;46.80;;;;;;4955401;28;46381;-63
2022/04/30 10:40:04;;;;;;;18.30;12.07;;;15.40;46.70;;;;;;4959445;28;46453;-63
2022/04/30 10:42:43;;;;;;;15.10;11.50;;;15.60;46.40;;;;;;4959392;28;47722;-63
2022/04/30 10:45:15;;;;;;;18.00;11.87;;;15.90;46.10;;;;;;4959710;28;46499;-63
2022/04/30 10:47:56;;;;;;;17.67;11.80;;;16.00;45.40;;;;;;4959535;28;46819;-64
2022/04/30 10:50:25;;;;;;;17.50;12.60;;;15.80;45.90;;;;;;4957685;28;46057;-63
2022/04/30 10:52:51;;;;;;;16.50;11.70;;;15.80;45.80;;;;;;4959959;28;46807;-63
2022/04/30 10:55:19;;;;;;;13.33;10.20;;;15.80;45.90;;;;;;4959785;28;46452;-63
2022/04/30 10:57:46;;;;;;;17.70;11.80;;;15.60;45.90;;;;;;4959800;28;46480;-63
2022/04/30 11:00:13;;;;;;;17.57;10.70;;;15.80;45.40;;;;;;4959514;28;46447;-64
2022/04/30 11:02:39;;;;;;;15.87;9.70;;;15.60;46.60;;;;;;4959498;28;47902;-64
2022/04/30 11:05:16;;;;;;;20.83;11.17;;;15.40;44.90;;;;;;4959745;28;46512;-63
2022/04/30 11:07:44;;;;;;;20.37;10.50;;;15.20;45.30;;;;;;4952757;28;46516;-63
2022/04/30 11:10:11;;;;;;;14.30;10.13;;;15.40;46.60;;;;;;4959381;28;46535;-64
2022/04/30 11:12:38;;;;;;;17.17;10.30;;;15.40;45.10;;;;;;4967592;28;48029;-63
2022/04/30 11:15:04;;;;;;;13.90;11.13;;;15.70;44.90;;;;;;4943403;28;46636;-63
2022/04/30 11:17:30;;;;;;;15.53;9.57;;;15.70;44.40;;;;;;4959449;28;46410;-62
2022/04/30 11:19:55;;;;;;;12.77;9.23;;;16.00;44.00;;;;;;4943321;28;46405;-62
2022/04/30 11:22:23;;;;;;;15.00;10.43;;;16.20;43.50;;;;;;4959247;28;49341;-62
2022/04/30 11:24:49;;;;;;;20.17;10.47;;;16.40;42.70;;;;;;4959075;28;46449;-64
2022/04/30 11:27:15;;;;;;;13.73;8.87;;;16.60;42.20;;;;;;4959524;28;46163;-64
2022/04/30 11:29:52;;;;;;;10.60;8.47;;;16.80;41.80;;;;;;4958221;28;46508;-64
2022/04/30 11:32:27;;;;;;;16.83;8.63;;;16.70;41.20;;;;;;4957940;28;47912;-62
2022/04/30 11:34:54;;;;;;;9.67;7.87;;;16.40;40.60;;;;;;4957237;28;46635;-63
2022/04/30 11:37:20;;;;;;;10.50;8.10;;;16.10;40.80;;;;;;4956764;28;45801;-63
2022/04/30 11:39:45;;;;;;;12.53;8.70;;;16.00;41.10;;;;;;4952817;28;45967;-63
2022/04/30 11:42:11;;;;;;;17.43;9.47;;;16.30;40.60;;;;;;4956651;28;47778;-63
2022/04/30 11:44:37;;;;;;;15.23;10.73;;;16.40;40.40;;;;;;4958736;28;45913;-63
2022/04/30 11:47:07;;;;;;;18.70;10.73;;;16.80;40.00;;;;;;4958405;28;46745;-63
2022/04/30 11:49:33;;;;;;;13.20;9.67;;;17.00;40.00;;;;;;4957015;28;46501;-63
2022/04/30 11:51:59;;;;;;;13.23;10.00;;;17.00;39.60;;;;;;4958033;28;48126;-63
2022/04/30 11:54:27;;;;;;;18.30;9.90;;;16.90;39.80;;;;;;4957623;28;46282;-63
2022/04/30 11:56:53;;;;;;;14.70;10.27;;;16.90;39.90;;;;;;4960054;28;45901;-63
2022/04/30 11:59:39;;;;;;;18.20;10.97;;;16.90;39.70;;;;;;4958660;28;46546;-63
2022/04/30 12:02:06;;;;;;;16.50;11.33;;;17.00;39.40;;;;;;4959833;28;47533;-63
2022/04/30 12:04:34;;;;;;;14.63;10.70;;;16.90;39.80;;;;;;4951548;28;46513;-62
2022/04/30 12:07:02;;;;;;;13.10;10.60;;;16.90;39.80;;;;;;4958752;28;46337;-62
2022/04/30 12:09:30;;;;;;;16.50;11.00;;;16.90;39.90;;;;;;4951064;28;46719;-62
2022/04/30 12:11:56;;;;;;;15.80;10.50;;;16.80;39.30;;;;;;4952049;28;46416;-62
2022/04/30 12:14:22;;;;;;;17.30;11.10;;;16.50;39.90;;;;;;4957214;28;46308;-63
2022/04/30 12:16:49;;;;;;;15.03;11.17;;;16.60;40.10;;;;;;4959369;28;46435;-62
2022/04/30 12:25:14;;;;;;;13.33;10.13;;;17.50;38.40;;;;;;4959661;28;45857;-63
2022/04/30 12:28:03;;;;;;;12.67;8.80;;;17.80;37.70;;;;;;4961075;28;46730;-62
2022/04/30 12:30:32;;;;;;;12.30;9.20;;;18.00;37.20;;;;;;4960885;28;46372;-63
2022/04/30 12:33:04;;;;;;;14.70;9.70;;;18.20;36.50;;;;;;4962333;28;47061;-63
2022/04/30 12:35:40;;;;;;;10.93;9.00;;;18.30;36.10;;;;;;4958862;28;46417;-62
2022/04/30 12:38:07;;;;;;;11.73;8.33;;;18.40;36.10;;;;;;4960350;28;46363;-63
2022/04/30 12:40:35;;;;;;;11.50;8.53;;;18.80;35.70;;;;;;4958292;28;46581;-65
2022/04/30 12:43:00;;;;;;;26.27;12.10;;;19.40;34.40;;;;;;4960671;28;48039;-66
2022/04/30 12:45:31;;;;;;;16.90;8.73;;;19.70;35.00;;;;;;4960487;28;46450;-65
2022/04/30 12:47:57;;;;;;;23.47;9.77;;;19.70;33.30;;;;;;4957397;28;46422;-66
2022/04/30 12:50:24;;;;;;;11.03;6.87;;;19.70;32.80;;;;;;4954241;28;46689;-65
2022/04/30 12:52:50;;;;;;;12.43;7.40;;;19.60;32.60;;;;;;4958117;28;47923;-66
2022/04/30 12:55:18;;;;;;;9.97;7.00;;;19.60;32.60;;;;;;4958189;28;46281;-65
2022/04/30 12:57:45;;;;;;;9.13;7.13;;;19.40;33.10;;;;;;4960111;28;46463;-64
2022/04/30 13:00:13;;;;;;;19.23;7.87;;;19.20;31.80;;;;;;4960229;28;46404;-65
2022/04/30 13:02:39;;;;;;;11.90;7.20;;;18.80;32.30;;;;;;4960157;28;48004;-65
2022/04/30 13:05:12;;;;;;;12.70;7.30;;;18.60;31.60;;;;;;4959928;28;46328;-65
2022/04/30 13:07:39;;;;;;;13.33;7.57;;;18.10;31.50;;;;;;4960169;28;46283;-65
2022/04/30 13:15:36;;;;;;;11.73;7.27;;;17.50;32.40;;;;;;4962222;28;46804;-65
2022/04/30 13:18:02;;;;;;;8.90;6.97;;;17.50;32.10;;;;;;4960289;28;46677;-65
2022/04/30 13:20:29;;;;;;;9.80;6.90;;;17.70;31.90;;;;;;4960349;28;46491;-65
2022/04/30 13:22:56;;;;;;;18.43;9.20;;;17.70;31.90;;;;;;4960256;28;47810;-65
2022/04/30 13:25:26;;;;;;;9.90;6.73;;;17.70;31.90;;;;;;4954487;28;46508;-65